Antonito, CO (81120)

11:21 PM MDT on September 19, 2014 (GMT -0600)
San Luis Valley Regional / Bergman Field | Change Station
CLOSE
Current Station
Airport
Location: Alamosa,
Elevation: 7543 ft
Nearby Weather Stations

Elev 7543 ft 37.44 °N, 105.86 °W | Updated 29 minutes ago

Clear
Clear
56 °F
Feels Like 56 °F
N
13
Wind Variable Wind from South

Today
High -- | Low -- °F
--% Chance of Precip.
Yesterday
High -- | Low -- °F
Precip. -- in
6:50 AM 7:06 PM
Waning Crescent, 14% visible
Pressure 29.96 in
Visibility 10.0 miles
Clouds Clear
Dew Point 31 °F
Humidity 39%
Rainfall 0.00 in
Snow Depth 0 in , 0 in , 0 in
UV 0 out of 12
Pollen 5.90 out of 12
Air Quality Not available.
Flu Activity Not available.
METAR KALS 200452Z AUTO 17011KT 10SM CLR 13/M01 A3020 RMK AO2 SLP143 T01331006

More Conditions Fewer Conditions

Pressure 29.96 in
Visibility 10.0 miles
Clouds Clear
Dew Point 31 °F
Humidity 39%
Rainfall 0.00 in
Snow Depth 0 in , 0 in , 0 in
UV 0 out of 12
Pollen 5.90 out of 12
Air Quality Not available.
Flu Activity Not available.
METAR KALS 200452Z AUTO 17011KT 10SM CLR 13/M01 A3020 RMK AO2 SLP143 T01331006

More Conditions Fewer Conditions

10-Day Weather Forecast

Almanac

Astronomy

Sep. 19, 2014 Rise Set
Actual Time 6:50 AM MDT 7:06 PM MDT
Civil Twilight 6:24 AM MDT 7:32 PM MDT
Nautical Twilight 5:53 AM MDT 8:02 PM MDT
Astronomical Twilight 5:23 AM MDT 8:33 PM MDT
Moon 2:42 AM MDT (9/19) 4:32 PM MDT (9/19)
Length of Visible Light 13h 07m
Length of Day
12h 15m
Tomorrow will be 2m 22s shorter.
Waning Crescent, 14% of the Moon is Illuminated
Sep 20
Waning Crescent
Sep 24
New
Oct 1
First Quarter
Oct 8
Full
Oct 15
Last Quarter

Yesterday's Extremes

State Highs State Lows

Community

WunderPhotos

Upload Photos

1,754,777 photos uploaded!

WunderBlogs® & News

Nearby

Snow Depth

Station Depth Elevation
University Camp 0 in 10300 ft
Mineral Creek 0 in 10040 ft
Buffalo Park 0 in 9240 ft
Lake Irene 0 in 10700 ft
Mancos 5 in 10000 ft

Earthquake Activity

City Distance Mag. Time & Date
No recent earthquake activity has been reported nearby.
Minimum magnitude displayed is 2.5.

Coastal Water Temperatures

Place Temperature
No Stations Reporting

Nearby Weather Stations